createdAt,value
2022-08-22T00:00:16.329Z,4.20
2022-08-22T00:03:09.680Z,2.70
2022-08-22T00:03:09.861Z,3.22
2022-08-22T00:03:16.196Z,4.07
2022-08-22T00:05:44.486Z,4.00
2022-08-22T00:08:38.980Z,4.22
2022-08-22T00:11:34.873Z,4.68
2022-08-22T00:14:22.389Z,4.30
2022-08-22T00:17:12.363Z,4.25
2022-08-22T00:19:47.670Z,4.18
2022-08-22T00:22:30.799Z,3.88
2022-08-22T00:25:29.089Z,4.00
2022-08-22T00:28:37.701Z,4.30
2022-08-22T00:31:22.592Z,3.70
2022-08-22T00:33:55.683Z,3.75
2022-08-22T00:36:30.538Z,3.95
2022-08-22T00:39:22.179Z,3.90
2022-08-22T00:42:03.686Z,4.20
2022-08-22T00:45:05.456Z,4.10
2022-08-22T00:47:34.660Z,3.85
2022-08-22T00:50:22.095Z,4.00
2022-08-22T00:53:27.750Z,4.07
2022-08-22T00:56:29.175Z,4.00
2022-08-22T00:59:33.525Z,4.00
2022-08-22T01:02:27.836Z,3.95
2022-08-22T01:05:07.702Z,3.95
2022-08-22T01:07:52.500Z,3.88
2022-08-22T01:10:56.817Z,4.30
2022-08-22T01:13:26.049Z,3.83
2022-08-22T01:16:05.356Z,3.90
2022-08-22T01:18:55.925Z,4.35
2022-08-22T01:21:49.147Z,4.47
2022-08-22T01:24:21.505Z,4.30
2022-08-22T01:27:21.530Z,4.30
2022-08-22T01:30:18.579Z,3.70
2022-08-22T01:33:22.650Z,3.85
2022-08-22T01:35:57.912Z,3.88
2022-08-22T01:38:43.139Z,3.60
2022-08-22T01:41:30.196Z,4.00
2022-08-22T01:44:11.601Z,4.00
2022-08-22T01:47:02.649Z,4.28
2022-08-22T01:49:35.224Z,4.10
2022-08-22T01:52:39.015Z,4.10
2022-08-22T01:55:13.661Z,4.30
2022-08-22T01:57:58.954Z,4.55
2022-08-22T02:00:34.883Z,4.72
2022-08-22T02:03:08.286Z,4.68
2022-08-22T02:05:51.097Z,4.73
2022-08-22T02:08:31.490Z,4.65
2022-08-22T02:11:11.068Z,4.28
2022-08-22T02:14:00.414Z,4.65
2022-08-22T02:16:43.376Z,4.38
2022-08-22T02:19:29.405Z,4.63
2022-08-22T02:22:04.121Z,4.43
2022-08-22T02:24:33.342Z,4.53
2022-08-22T02:27:02.788Z,4.70
2022-08-22T02:29:36.595Z,4.63
2022-08-22T02:32:16.329Z,4.67
2022-08-22T02:34:55.390Z,4.95
2022-08-22T02:38:00.430Z,4.75
2022-08-22T02:41:05.436Z,4.72
2022-08-22T02:43:49.683Z,4.97
2022-08-22T02:46:26.529Z,5.23
2022-08-22T02:49:08.974Z,5.03
2022-08-22T02:52:04.589Z,4.97
2022-08-22T02:54:47.384Z,5.10
2022-08-22T02:57:20.174Z,5.28
2022-08-22T03:00:31.945Z,5.17
2022-08-22T03:03:28.320Z,5.60
2022-08-22T03:06:04.856Z,5.60
2022-08-22T03:08:38.502Z,5.40
2022-08-22T03:11:19.033Z,5.20
2022-08-22T03:14:16.212Z,5.00
2022-08-22T03:17:06.001Z,5.70
2022-08-22T03:20:00.453Z,5.45
2022-08-22T03:22:45.692Z,5.45
2022-08-22T03:25:29.935Z,5.30
2022-08-22T03:28:38.521Z,5.57
2022-08-22T03:31:24.253Z,5.45
2022-08-22T03:34:23.923Z,5.68
2022-08-22T03:37:10.961Z,5.35
2022-08-22T03:39:42.709Z,5.50
2022-08-22T03:42:32.203Z,5.73
2022-08-22T03:45:26.477Z,5.32
2022-08-22T03:48:02.965Z,5.80
2022-08-22T03:50:48.036Z,6.00
2022-08-22T03:53:23.375Z,5.47
2022-08-22T03:56:18.005Z,5.90
2022-08-22T03:58:55.494Z,6.20
2022-08-22T04:01:41.722Z,6.07
2022-08-22T04:04:11.143Z,6.22
2022-08-22T04:06:56.352Z,5.80
2022-08-22T04:09:40.490Z,5.73
2022-08-22T04:12:37.449Z,5.95
2022-08-22T04:15:41.554Z,6.05
2022-08-22T04:18:37.560Z,6.30
2022-08-22T04:21:18.894Z,6.22
2022-08-22T04:23:59.302Z,6.40
2022-08-22T04:27:02.261Z,6.53
2022-08-22T04:29:37.099Z,5.88
2022-08-22T04:32:10.645Z,6.05
2022-08-22T04:34:55.848Z,6.90
2022-08-22T04:37:35.158Z,6.30
2022-08-22T04:40:21.352Z,6.00
2022-08-22T04:42:54.977Z,6.07
2022-08-22T04:45:29.424Z,5.72
2022-08-22T04:48:11.048Z,6.65
2022-08-22T04:51:18.482Z,6.50
2022-08-22T04:53:48.050Z,6.30
2022-08-22T04:56:22.293Z,6.90
2022-08-22T04:58:56.750Z,6.95
2022-08-22T05:01:26.726Z,6.47
2022-08-22T05:04:07.959Z,6.60
2022-08-22T05:06:43.573Z,6.50
2022-08-22T05:09:16.407Z,6.15
2022-08-22T05:11:43.318Z,6.70
2022-08-22T05:14:23.321Z,6.97
2022-08-22T05:16:52.607Z,6.93
2022-08-22T05:19:31.153Z,6.47
2022-08-22T05:21:59.503Z,6.40
2022-08-22T05:24:32.494Z,6.22
2022-08-22T05:27:09.332Z,6.57
2022-08-22T05:29:40.107Z,6.83
2022-08-22T05:32:15.351Z,6.90
2022-08-22T05:34:45.022Z,6.70
2022-08-22T05:37:21.205Z,6.32
2022-08-22T05:39:54.841Z,6.43
2022-08-22T05:42:31.945Z,6.27
2022-08-22T05:45:01.592Z,6.50
2022-08-22T05:47:38.275Z,6.97
2022-08-22T05:50:14.078Z,6.88
2022-08-22T05:53:04.749Z,7.28
2022-08-22T05:55:55.119Z,7.47
2022-08-22T05:58:40.071Z,6.82
2022-08-22T06:01:33.203Z,7.13
2022-08-22T06:04:03.175Z,6.85
2022-08-22T06:06:34.998Z,7.22
2022-08-22T06:09:04.294Z,6.47
2022-08-22T06:11:51.725Z,7.05
2022-08-22T06:14:51.444Z,7.22
2022-08-22T06:17:27.115Z,6.40
2022-08-22T06:19:54.797Z,7.43
2022-08-22T06:22:27.663Z,6.27
2022-08-22T06:25:07.745Z,6.28
2022-08-22T06:27:35.149Z,6.38
2022-08-22T06:30:04.104Z,6.00
2022-08-22T06:32:58.892Z,5.75
2022-08-22T06:35:31.230Z,5.73
2022-08-22T06:38:00.351Z,5.60
2022-08-22T06:40:29.173Z,6.00
2022-08-22T06:42:57.391Z,5.88
2022-08-22T06:45:30.398Z,6.10
2022-08-22T06:48:06.435Z,5.93
2022-08-22T06:50:37.475Z,6.10
2022-08-22T06:53:12.787Z,6.40
2022-08-22T06:55:46.234Z,7.22
2022-08-22T06:58:20.719Z,7.80
2022-08-22T07:01:11.128Z,7.33
2022-08-22T07:03:47.168Z,7.82
2022-08-22T07:06:28.095Z,8.90
2022-08-22T07:08:55.392Z,8.15
2022-08-22T07:11:39.906Z,9.07
2022-08-22T07:14:11.880Z,9.03
2022-08-22T07:16:44.189Z,8.70
2022-08-22T07:19:23.550Z,9.10
2022-08-22T07:21:50.036Z,9.20
2022-08-22T07:24:25.318Z,8.38
2022-08-22T07:27:04.791Z,8.70
2022-08-22T07:30:10.123Z,8.70
2022-08-22T07:33:17.765Z,8.65
2022-08-22T07:35:53.409Z,7.85
2022-08-22T07:38:38.192Z,8.68
2022-08-22T07:41:09.956Z,8.40
2022-08-22T07:43:50.062Z,9.18
2022-08-22T07:46:19.573Z,8.43
2022-08-22T07:49:08.090Z,8.30
2022-08-22T07:51:43.155Z,8.45
2022-08-22T07:54:22.786Z,8.23
2022-08-22T07:56:57.716Z,7.95
2022-08-22T07:59:25.913Z,7.07
2022-08-22T08:01:56.333Z,7.70
2022-08-22T08:04:28.943Z,7.85
2022-08-22T08:06:59.134Z,8.17
2022-08-22T08:09:31.732Z,7.68
2022-08-22T08:12:00.295Z,7.28
2022-08-22T08:14:27.968Z,7.20
2022-08-22T08:17:02.212Z,7.88
2022-08-22T08:19:30.853Z,7.40
2022-08-22T08:21:58.731Z,7.57
2022-08-22T08:24:34.539Z,7.82
2022-08-22T08:27:16.331Z,7.10
2022-08-22T08:29:50.753Z,7.28
2022-08-22T08:32:18.187Z,7.00
2022-08-22T08:34:44.845Z,7.10
2022-08-22T08:37:26.234Z,7.18
2022-08-22T08:39:57.211Z,7.57
2022-08-22T08:42:42.171Z,7.35
2022-08-22T08:45:39.420Z,7.47
2022-08-22T08:48:15.058Z,7.15
2022-08-22T08:51:10.107Z,6.72
2022-08-22T08:54:04.682Z,7.00
2022-08-22T08:56:47.228Z,6.95
2022-08-22T08:59:35.789Z,7.10
2022-08-22T09:02:33.022Z,7.10
2022-08-22T09:05:29.571Z,7.10
2022-08-22T09:08:14.676Z,7.15
2022-08-22T09:11:16.946Z,6.43
2022-08-22T09:14:09.560Z,6.40
2022-08-22T09:16:51.889Z,6.50
2022-08-22T09:19:24.528Z,7.53
2022-08-22T09:22:03.062Z,6.35
2022-08-22T09:24:59.255Z,6.43
2022-08-22T09:27:37.178Z,6.20
2022-08-22T09:30:07.913Z,5.93
2022-08-22T09:32:38.083Z,6.10
2022-08-22T09:35:11.311Z,6.13
2022-08-22T09:37:50.171Z,6.45
2022-08-22T09:40:30.843Z,6.17
2022-08-22T09:43:04.868Z,5.72
2022-08-22T09:45:42.968Z,6.18
2022-08-22T09:48:19.017Z,5.88
2022-08-22T09:51:32.112Z,6.50
2022-08-22T09:54:19.096Z,5.83
2022-08-22T09:56:58.649Z,5.80
2022-08-22T09:59:27.802Z,6.22
2022-08-22T10:02:15.384Z,5.78
2022-08-22T10:04:55.270Z,5.63
2022-08-22T10:07:54.908Z,6.00
2022-08-22T10:10:43.401Z,5.72
2022-08-22T10:13:24.013Z,5.32
2022-08-22T10:16:01.778Z,5.75
2022-08-22T10:19:09.724Z,5.00
2022-08-22T10:22:13.832Z,5.50
2022-08-22T10:25:09.409Z,5.65
2022-08-22T10:27:55.358Z,5.70
2022-08-22T10:30:35.784Z,5.85
2022-08-22T10:33:05.366Z,6.30
2022-08-22T10:35:39.837Z,5.40
2022-08-22T10:38:10.740Z,5.22
2022-08-22T10:40:53.311Z,6.15
2022-08-22T10:43:28.857Z,6.05
2022-08-22T10:46:12.517Z,6.65
2022-08-22T10:49:07.998Z,5.50
2022-08-22T10:51:53.416Z,5.30
2022-08-22T10:54:29.010Z,6.45
2022-08-22T10:56:59.227Z,6.75
2022-08-22T10:59:46.332Z,7.18
2022-08-22T11:02:23.217Z,6.10
2022-08-22T11:05:02.798Z,5.50
2022-08-22T11:07:29.208Z,5.53
2022-08-22T11:10:04.864Z,4.80
2022-08-22T11:12:42.704Z,5.30
2022-08-22T11:15:28.334Z,5.13
2022-08-22T11:18:07.682Z,5.50
2022-08-22T11:21:16.902Z,5.22
2022-08-22T11:24:01.525Z,4.97
2022-08-22T11:26:46.842Z,4.65
2022-08-22T11:29:28.867Z,4.17
2022-08-22T11:32:05.849Z,3.20
2022-08-22T11:35:09.533Z,3.30
2022-08-22T11:37:56.264Z,3.25
2022-08-22T11:40:42.607Z,3.75
2022-08-22T11:43:37.228Z,3.37
2022-08-22T11:46:20.296Z,2.90
2022-08-22T11:48:55.788Z,3.00
2022-08-22T11:51:47.750Z,3.00
2022-08-22T11:54:44.467Z,3.20
2022-08-22T11:57:17.550Z,3.30
2022-08-22T12:00:32.735Z,3.25
2022-08-22T12:03:24.415Z,3.92
2022-08-22T12:06:01.156Z,4.07
2022-08-22T12:08:30.361Z,3.70
2022-08-22T12:11:09.840Z,3.70
2022-08-22T12:14:06.500Z,3.90
2022-08-22T12:17:10.627Z,4.07
2022-08-22T12:20:16.498Z,4.47
2022-08-22T12:23:17.290Z,4.30
2022-08-22T12:25:46.373Z,4.00
2022-08-22T12:28:30.054Z,3.28
2022-08-22T12:31:07.786Z,4.10
2022-08-22T12:33:50.814Z,3.30
2022-08-22T12:36:40.542Z,3.90
2022-08-22T12:39:33.129Z,3.87
2022-08-22T12:42:11.859Z,4.05
2022-08-22T12:45:17.975Z,4.38
2022-08-22T12:48:15.571Z,3.97
2022-08-22T12:50:50.199Z,4.70
2022-08-22T12:53:51.805Z,4.27
2022-08-22T12:56:29.378Z,4.45
2022-08-22T12:59:23.436Z,4.72
2022-08-22T13:01:54.615Z,5.05
2022-08-22T13:04:33.202Z,5.15
2022-08-22T13:07:22.608Z,4.97
2022-08-22T13:09:55.263Z,4.75
2022-08-22T13:12:36.289Z,5.55
2022-08-22T13:15:15.633Z,5.40
2022-08-22T13:17:45.570Z,5.43
2022-08-22T13:20:23.818Z,5.00
2022-08-22T13:22:54.423Z,4.70
2022-08-22T13:25:25.452Z,4.80
2022-08-22T13:27:56.938Z,4.70
2022-08-22T13:30:37.808Z,4.75
2022-08-22T13:33:14.528Z,4.60
2022-08-22T13:35:54.580Z,5.00
2022-08-22T13:38:26.849Z,4.25
2022-08-22T13:40:56.717Z,7.75
2022-08-22T13:43:53.826Z,4.38
2022-08-22T13:46:29.001Z,4.43
2022-08-22T13:49:01.162Z,4.53
2022-08-22T13:52:01.178Z,4.05
2022-08-22T13:54:55.859Z,4.32
2022-08-22T13:57:40.612Z,4.30
2022-08-22T14:00:30.318Z,3.83
2022-08-22T14:03:18.025Z,3.83
2022-08-22T14:05:54.900Z,3.65
2022-08-22T14:08:36.987Z,4.15
2022-08-22T14:11:12.451Z,3.85
2022-08-22T14:13:46.928Z,3.87
2022-08-22T14:16:24.572Z,3.95
2022-08-22T14:18:58.522Z,4.35
2022-08-22T14:21:40.659Z,3.85
2022-08-22T14:24:26.900Z,3.70
2022-08-22T14:27:05.708Z,3.50
2022-08-22T14:29:51.889Z,3.55
2022-08-22T14:32:22.624Z,4.07
2022-08-22T14:35:00.487Z,4.00
2022-08-22T14:37:38.964Z,4.10
2022-08-22T14:40:10.449Z,4.30
2022-08-22T14:42:52.805Z,4.18
2022-08-22T14:45:27.015Z,4.80
2022-08-22T14:48:14.495Z,4.50
2022-08-22T14:50:53.380Z,5.10
2022-08-22T14:53:25.192Z,4.77
2022-08-22T14:56:01.042Z,4.53
2022-08-22T14:58:31.359Z,5.30
2022-08-22T15:01:11.681Z,4.70
2022-08-22T15:03:40.323Z,4.90
2022-08-22T15:06:13.457Z,4.63
2022-08-22T15:08:46.397Z,4.60
2022-08-22T15:11:18.855Z,5.00
2022-08-22T15:14:01.642Z,4.65
2022-08-22T15:16:33.814Z,4.45
2022-08-22T15:19:01.443Z,4.63
2022-08-22T15:21:33.194Z,5.20
2022-08-22T15:24:12.427Z,4.60
2022-08-22T15:26:50.146Z,4.35
2022-08-22T15:29:24.609Z,4.45
2022-08-22T15:32:03.425Z,4.30
2022-08-22T15:34:39.963Z,4.10
2022-08-22T15:37:16.635Z,4.20
2022-08-22T15:40:08.380Z,4.43
2022-08-22T15:42:47.153Z,4.25
2022-08-22T15:45:36.216Z,4.07
2022-08-22T15:48:09.393Z,4.03
2022-08-22T15:50:40.627Z,4.70
2022-08-22T15:53:26.363Z,4.30
2022-08-22T15:56:11.337Z,4.50
2022-08-22T15:58:40.319Z,3.97
2022-08-22T16:01:19.652Z,3.70
2022-08-22T16:04:02.213Z,4.03
2022-08-22T16:06:52.672Z,3.92
2022-08-22T16:09:38.212Z,3.80
2022-08-22T16:12:25.072Z,3.87
2022-08-22T16:14:53.265Z,3.92
2022-08-22T16:17:28.484Z,3.78
2022-08-22T16:20:19.563Z,3.45
2022-08-22T16:22:55.612Z,3.60
2022-08-22T16:25:43.796Z,3.60
2022-08-22T16:28:56.713Z,3.70
2022-08-22T16:31:25.153Z,3.40
2022-08-22T16:33:51.760Z,3.40
2022-08-22T16:36:24.051Z,3.40
2022-08-22T16:38:54.028Z,3.40
2022-08-22T16:41:28.891Z,3.60
2022-08-22T16:44:14.951Z,3.40
2022-08-22T16:46:46.119Z,3.80
2022-08-22T16:49:25.931Z,3.65
2022-08-22T16:52:20.618Z,3.80
2022-08-22T16:55:02.469Z,3.70
2022-08-22T16:58:19.590Z,3.80
2022-08-22T17:00:51.915Z,4.00
2022-08-22T17:03:42.900Z,3.50
2022-08-22T17:06:24.729Z,3.87
2022-08-22T17:09:12.175Z,3.92
2022-08-22T17:11:38.588Z,4.00
2022-08-22T17:14:31.533Z,3.58
2022-08-22T17:17:16.429Z,3.42
2022-08-22T17:19:52.062Z,3.50
2022-08-22T17:22:32.783Z,3.50
2022-08-22T17:25:20.899Z,4.13
2022-08-22T17:28:21.152Z,3.65
2022-08-22T17:31:00.551Z,3.70
2022-08-22T17:33:55.082Z,3.67
2022-08-22T17:36:49.540Z,3.47
2022-08-22T17:40:03.717Z,3.65
2022-08-22T17:42:51.327Z,3.70
2022-08-22T17:45:33.415Z,3.50
2022-08-22T17:48:07.119Z,3.70
2022-08-22T17:50:53.939Z,3.55
2022-08-22T17:53:24.579Z,3.60
2022-08-22T17:56:03.753Z,3.70
2022-08-22T17:58:43.341Z,3.50
2022-08-22T18:01:33.039Z,3.27
2022-08-22T18:04:04.580Z,3.38
2022-08-22T18:06:36.299Z,3.40
2022-08-22T18:09:17.062Z,3.40
2022-08-22T18:11:54.399Z,3.90
2022-08-22T18:14:40.471Z,3.40
2022-08-22T18:17:32.828Z,3.75
2022-08-22T18:20:25.078Z,3.60
2022-08-22T18:23:28.428Z,3.50
2022-08-22T18:26:06.380Z,3.83
2022-08-22T18:28:35.979Z,3.50
2022-08-22T18:31:38.645Z,3.60
2022-08-22T18:34:36.682Z,3.80
2022-08-22T18:37:24.481Z,3.78
2022-08-22T18:39:57.170Z,3.70
2022-08-22T18:42:50.722Z,3.23
2022-08-22T18:45:43.690Z,3.38
2022-08-22T18:49:11.647Z,3.65
2022-08-22T18:51:34.404Z,3.83
2022-08-22T18:54:04.589Z,3.53
2022-08-22T18:56:31.061Z,3.50
2022-08-22T18:59:11.371Z,3.75
2022-08-22T19:01:59.725Z,3.75
2022-08-22T19:04:44.409Z,3.40
2022-08-22T19:07:33.880Z,3.60
2022-08-22T19:10:12.421Z,3.40
2022-08-22T19:13:06.880Z,3.20
2022-08-22T19:16:06.326Z,3.50
2022-08-22T19:18:41.652Z,3.47
2022-08-22T19:21:16.867Z,3.33
2022-08-22T19:23:47.586Z,3.27
2022-08-22T19:26:44.673Z,3.40
2022-08-22T19:29:13.973Z,3.60
2022-08-22T19:32:13.214Z,3.95
2022-08-22T19:34:47.082Z,3.55
2022-08-22T19:37:32.049Z,3.40
2022-08-22T19:40:09.804Z,3.20
2022-08-22T19:42:38.956Z,3.60
2022-08-22T19:45:17.246Z,3.40
2022-08-22T19:47:54.631Z,3.47
2022-08-22T19:50:21.008Z,3.10
2022-08-22T19:52:56.738Z,3.30
2022-08-22T19:55:38.553Z,3.58
2022-08-22T19:58:17.549Z,3.35
2022-08-22T20:01:04.248Z,3.72
2022-08-22T20:03:56.957Z,3.27
2022-08-22T20:06:45.092Z,3.63
2022-08-22T20:10:02.682Z,3.50
2022-08-22T20:12:29.107Z,3.55
2022-08-22T20:14:56.272Z,3.53
2022-08-22T20:17:25.607Z,4.10
2022-08-22T20:20:35.035Z,3.88
2022-08-22T20:23:32.352Z,3.83
2022-08-22T20:25:59.537Z,3.60
2022-08-22T20:28:47.752Z,3.72
2022-08-22T20:31:26.535Z,3.80
2022-08-22T20:34:00.420Z,3.90
2022-08-22T20:36:28.646Z,3.88
2022-08-22T20:39:05.149Z,4.03
2022-08-22T20:41:36.967Z,4.18
2022-08-22T20:44:13.780Z,3.90
2022-08-22T20:46:46.464Z,3.85
2022-08-22T20:49:25.898Z,3.80
2022-08-22T20:51:54.039Z,3.72
2022-08-22T20:54:23.057Z,4.00
2022-08-22T20:57:00.552Z,3.60
2022-08-22T20:59:32.717Z,3.83
2022-08-22T21:02:08.752Z,3.88
2022-08-22T21:05:05.915Z,3.92
2022-08-22T21:07:38.561Z,4.20
2022-08-22T21:10:22.974Z,3.97
2022-08-22T21:13:12.493Z,3.70
2022-08-22T21:15:46.107Z,4.18
2022-08-22T21:18:23.314Z,4.03
2022-08-22T21:20:49.920Z,3.70
2022-08-22T21:23:17.102Z,3.53
2022-08-22T21:26:00.155Z,3.78
2022-08-22T21:28:40.893Z,3.70
2022-08-22T21:31:14.720Z,4.00
2022-08-22T21:33:47.133Z,3.97
2022-08-22T21:36:26.283Z,3.93
2022-08-22T21:39:05.816Z,4.03
2022-08-22T21:41:41.466Z,3.90
2022-08-22T21:44:31.809Z,4.18
2022-08-22T21:47:23.295Z,3.95
2022-08-22T21:50:08.246Z,4.00
2022-08-22T21:52:37.598Z,4.10
2022-08-22T21:55:14.955Z,4.10
2022-08-22T21:57:42.033Z,4.00
2022-08-22T22:00:48.809Z,4.10
2022-08-22T22:03:19.845Z,3.90
2022-08-22T22:05:47.137Z,3.95
2022-08-22T22:08:13.621Z,4.00
2022-08-22T22:10:43.159Z,4.15
2022-08-22T22:13:10.589Z,4.32
2022-08-22T22:15:42.348Z,4.00
2022-08-22T22:18:08.784Z,4.00
2022-08-22T22:20:35.321Z,4.20
2022-08-22T22:23:01.757Z,3.83
2022-08-22T22:25:40.890Z,4.00
2022-08-22T22:28:30.426Z,4.07
2022-08-22T22:30:57.173Z,4.10
2022-08-22T22:33:27.662Z,3.83
2022-08-22T22:35:57.169Z,4.00
2022-08-22T22:38:24.448Z,4.40
2022-08-22T22:40:52.046Z,4.30
2022-08-22T22:43:18.763Z,4.00
2022-08-22T22:45:45.344Z,4.60
2022-08-22T22:48:12.061Z,4.45
2022-08-22T22:50:48.705Z,4.28
2022-08-22T22:53:19.924Z,4.17
2022-08-22T22:55:47.821Z,4.50
2022-08-22T22:58:27.480Z,4.50
2022-08-22T23:00:54.057Z,4.82
2022-08-22T23:03:20.570Z,4.90
2022-08-22T23:05:46.998Z,4.80
2022-08-22T23:08:13.503Z,4.70
2022-08-22T23:10:40.063Z,5.40
2022-08-22T23:13:06.484Z,5.15
2022-08-22T23:15:32.975Z,5.68
2022-08-22T23:17:59.609Z,5.00
2022-08-22T23:20:26.196Z,5.20
2022-08-22T23:22:52.638Z,5.10
2022-08-22T23:25:20.605Z,5.50
2022-08-22T23:27:48.714Z,5.60
2022-08-22T23:30:20.635Z,5.13
2022-08-22T23:32:47.079Z,5.38
2022-08-22T23:35:13.583Z,4.82
2022-08-22T23:37:40.148Z,5.22
2022-08-22T23:40:07.402Z,5.22
2022-08-22T23:42:34.044Z,5.67
2022-08-22T23:45:00.474Z,5.00
2022-08-22T23:47:26.944Z,5.40
2022-08-22T23:49:53.451Z,5.05
2022-08-22T23:52:19.982Z,5.65
2022-08-22T23:54:46.406Z,5.23
2022-08-22T23:57:13.539Z,5.50
2022-08-22T23:59:46.450Z,6.00
